Terminal Aerodrome Forecast
Issued by NWS

Home | Current Version | Previous Version | Text Only | Print | Product List | Glossary On
Versions: 1 2 3 4 5 6 7 8 9 10 11 12 13 14 15
802
FTUS46 KHNX 191742
TAFVIS
TAF
KVIS 191742Z 1918/2018 VRB02KT 3SM BR SCT200
      TEMPO 1918/1919 1SM BR
     FM191900 VRB03KT P6SM SCT200
     FM192300 31004KT P6SM BKN200=

USA.gov is the U.S. government's official web portal to all federal, state and local government web resources and services.